Flight Briefing for CMB807

Departure Arrival
Thule Air Base (BGTL)
Click to view FAA NOTAMS
Joint Base McGuire Dix Lakehurst (KWRI)
Click to view FAA NOTAMS
Departure Time Arrival Time
N/A N/A
Aircraft Distance
B757-200SF 2201nm
Departure METAR Arrival METAR
BGTL 181556Z AUTO 13007KT 9999 CLR M27/M33 A2921 RMK AO2 SLP886 T12731335 TSNO $ KWRI 181556Z AUTO 00000KT 10SM FEW085 06/M12 A3028 RMK AO2 SLP255 T00641117 $
Suggested Route





View recent IFR Routes data
Notes
USTRANSCOM CONTRACT FLIGHT

Charts and Procedures

Charts for BGTL
No chart available
Charts for KWRI
No chart available

Windy.com Weather Map